Time;durP1;ratioP1;P1;durP2;ratioP2;P2;SDS_P1;SDS_P2;PMS_P1;PMS_P2;Temp;Humidity;BMP_temperature;BMP_pressure;BME280_temperature;BME280_humidity;BME280_pressure;Samples;Min_cycle;Max_cycle;Signal;HPM_P1;HPM_P2
2023/06/07 00:02:11;;;;;;;0.20;0.20;;;12.10;99.90;;;;;;5034321;28;20357;-54
2023/06/07 00:04:39;;;;;;;0.63;0.40;;;12.00;99.90;;;;;;5034565;28;20101;-55
2023/06/07 00:07:05;;;;;;;0.88;0.52;;;12.00;99.90;;;;;;5034371;28;20033;-52
2023/06/07 00:09:31;;;;;;;0.40;0.40;;;12.00;99.90;;;;;;5034485;28;20028;-50
2023/06/07 00:11:57;;;;;;;0.30;0.30;;;12.00;99.90;;;;;;5034052;28;20108;-52
2023/06/07 00:14:23;;;;;;;0.52;0.52;;;11.90;99.90;;;;;;5033918;28;20042;-52
2023/06/07 00:16:52;;;;;;;0.20;0.20;;;11.90;99.90;;;;;;5034204;28;20025;-54
2023/06/07 00:19:25;;;;;;;0.20;0.20;;;11.90;99.90;;;;;;5034117;28;20167;-50
2023/06/07 00:21:54;;;;;;;0.43;0.43;;;11.90;99.90;;;;;;5034039;28;20674;-53
2023/06/07 00:24:20;;;;;;;0.65;0.65;;;11.90;99.90;;;;;;5016169;28;20033;-49
2023/06/07 00:26:46;;;;;;;0.77;0.65;;;11.90;99.90;;;;;;5034106;28;20018;-49
2023/06/07 00:29:13;;;;;;;0.32;0.32;;;11.90;99.90;;;;;;5034162;28;20108;-50
2023/06/07 00:31:39;;;;;;;0.30;0.30;;;11.90;99.90;;;;;;5033975;28;20022;-51
2023/06/07 00:34:04;;;;;;;0.20;0.20;;;11.90;99.90;;;;;;5033802;28;20075;-51
2023/06/07 00:36:30;;;;;;;0.30;0.30;;;11.90;99.90;;;;;;5033686;28;20040;-49
2023/06/07 00:38:56;;;;;;;0.50;0.50;;;11.90;99.90;;;;;;5033825;28;20025;-49
2023/06/07 00:41:22;;;;;;;0.40;0.40;;;11.90;99.90;;;;;;5033664;28;20025;-50
2023/06/07 00:43:48;;;;;;;0.22;0.20;;;11.90;99.90;;;;;;5015605;28;20106;-47
2023/06/07 00:46:19;;;;;;;0.55;0.38;;;11.90;99.90;;;;;;5033329;28;20036;-49
2023/06/07 00:48:45;;;;;;;0.40;0.40;;;11.90;99.90;;;;;;5020336;28;20031;-50
2023/06/07 00:51:11;;;;;;;0.30;0.30;;;11.90;99.90;;;;;;5033626;28;20029;-53
2023/06/07 00:53:38;;;;;;;0.30;0.30;;;11.90;99.90;;;;;;5033412;28;20041;-51
2023/06/07 00:56:07;;;;;;;0.40;0.40;;;11.90;99.90;;;;;;5033713;28;20049;-49
2023/06/07 00:58:37;;;;;;;0.20;0.20;;;11.90;99.90;;;;;;5032835;28;20543;-49
2023/06/07 01:01:04;;;;;;;0.90;0.30;;;11.90;99.90;;;;;;5033496;28;20030;-50
2023/06/07 01:03:30;;;;;;;0.20;0.20;;;11.90;99.90;;;;;;5033212;28;20025;-46
2023/06/07 01:05:58;;;;;;;0.52;0.52;;;11.90;99.90;;;;;;5033578;28;20033;-50
2023/06/07 01:08:25;;;;;;;0.20;0.20;;;11.90;99.90;;;;;;5033498;28;20060;-47
2023/06/07 01:10:51;;;;;;;0.20;0.20;;;11.90;99.90;;;;;;5033389;28;20025;-50
2023/06/07 01:13:18;;;;;;;0.20;0.20;;;11.90;99.90;;;;;;5032956;28;20034;-51
2023/06/07 01:15:44;;;;;;;0.40;0.40;;;11.90;99.90;;;;;;5033042;28;20021;-47
2023/06/07 01:18:10;;;;;;;0.38;0.20;;;11.90;99.90;;;;;;5033010;28;20507;-55
2023/06/07 01:20:39;;;;;;;0.43;0.43;;;11.90;99.90;;;;;;5033110;28;20092;-54
2023/06/07 01:23:07;;;;;;;0.30;0.30;;;12.00;99.90;;;;;;5033058;28;20198;-50
2023/06/07 01:25:33;;;;;;;0.30;0.30;;;11.90;99.90;;;;;;5033203;28;20118;-50
2023/06/07 01:28:00;;;;;;;0.30;0.30;;;11.90;99.90;;;;;;5033169;28;20061;-47
2023/06/07 01:30:31;;;;;;;0.20;0.20;;;11.90;99.90;;;;;;5033066;28;20041;-49
2023/06/07 01:32:57;;;;;;;0.22;0.22;;;11.80;99.90;;;;;;5032656;28;20039;-50
2023/06/07 01:35:24;;;;;;;0.30;0.30;;;11.80;99.90;;;;;;5032875;28;20087;-49
2023/06/07 01:37:51;;;;;;;0.45;0.30;;;11.70;99.90;;;;;;5032912;28;20029;-51
2023/06/07 01:40:18;;;;;;;0.30;0.30;;;11.80;99.90;;;;;;5032801;28;20022;-51
2023/06/07 01:42:44;;;;;;;1.17;0.65;;;11.80;99.90;;;;;;5032566;28;20076;-47
2023/06/07 01:45:10;;;;;;;0.22;0.22;;;11.80;99.90;;;;;;5032640;28;20029;-47
2023/06/07 01:47:37;;;;;;;0.30;0.30;;;11.70;99.90;;;;;;5032604;28;20431;-47
2023/06/07 01:50:02;;;;;;;0.30;0.30;;;11.80;99.90;;;;;;5032459;28;20040;-53
2023/06/07 01:52:28;;;;;;;0.98;0.90;;;11.70;99.90;;;;;;5032436;28;20029;-47
2023/06/07 01:54:55;;;;;;;0.10;0.10;;;11.70;99.90;;;;;;5032236;28;20049;-47
2023/06/07 01:57:31;;;;;;;0.20;0.20;;;11.70;99.90;;;;;;5032430;28;20048;-47
2023/06/07 02:00:25;;;;;;;0.20;0.20;;;11.70;99.90;;;;;;5032193;28;20499;-47
2023/06/07 02:03:06;;;;;;;0.47;0.47;;;11.70;99.90;;;;;;5032402;28;20034;-48
2023/06/07 02:05:36;;;;;;;1.95;0.40;;;11.70;99.90;;;;;;5032190;28;20014;-49
2023/06/07 02:08:15;;;;;;;0.28;0.28;;;11.60;99.90;;;;;;5031812;28;20033;-52
2023/06/07 02:10:42;;;;;;;0.25;0.25;;;11.70;99.90;;;;;;5031870;28;20026;-47
2023/06/07 02:13:09;;;;;;;0.32;0.30;;;11.70;99.90;;;;;;5031736;28;20041;-50
2023/06/07 02:15:35;;;;;;;0.20;0.20;;;11.60;99.90;;;;;;5031943;28;20028;-48
2023/06/07 02:18:01;;;;;;;0.52;0.30;;;11.60;99.90;;;;;;5031860;28;20108;-56
2023/06/07 02:20:31;;;;;;;0.30;0.30;;;11.60;99.90;;;;;;5031757;28;20470;-53
2023/06/07 02:22:57;;;;;;;0.52;0.40;;;11.50;99.90;;;;;;5031684;28;20035;-57
2023/06/07 02:25:24;;;;;;;0.28;0.28;;;11.50;99.90;;;;;;5031812;28;20017;-51
2023/06/07 02:27:50;;;;;;;0.30;0.30;;;11.50;99.90;;;;;;5032040;28;20033;-51
2023/06/07 02:30:16;;;;;;;0.50;0.50;;;11.50;99.90;;;;;;5031613;28;20021;-52
2023/06/07 02:32:45;;;;;;;0.30;0.30;;;11.50;99.90;;;;;;5031695;28;20063;-54
2023/06/07 02:35:11;;;;;;;0.22;0.22;;;11.50;99.90;;;;;;5031493;28;20534;-52
2023/06/07 02:37:37;;;;;;;0.65;0.65;;;11.50;99.90;;;;;;5031564;28;20087;-48
2023/06/07 02:40:05;;;;;;;0.20;0.20;;;11.50;99.90;;;;;;5031161;28;20111;-49
2023/06/07 02:42:31;;;;;;;0.57;0.47;;;11.50;99.90;;;;;;5031517;28;20043;-50
2023/06/07 02:44:57;;;;;;;0.20;0.20;;;11.50;99.90;;;;;;5031509;28;20021;-49
2023/06/07 02:47:22;;;;;;;0.22;0.22;;;11.50;99.90;;;;;;5029490;28;20025;-49
2023/06/07 02:49:48;;;;;;;0.50;0.22;;;11.50;99.90;;;;;;5031327;28;20025;-49
2023/06/07 02:52:14;;;;;;;0.30;0.30;;;11.50;99.90;;;;;;5030996;28;20021;-53
2023/06/07 02:54:39;;;;;;;0.52;0.20;;;11.40;99.90;;;;;;5031329;28;20129;-54
2023/06/07 02:57:07;;;;;;;0.30;0.30;;;11.50;99.90;;;;;;5031299;28;20377;-52
2023/06/07 02:59:33;;;;;;;0.32;0.32;;;11.40;99.90;;;;;;5031084;28;20033;-47
2023/06/07 03:01:59;;;;;;;0.30;0.30;;;11.40;99.90;;;;;;5031169;28;20079;-52
2023/06/07 03:04:26;;;;;;;0.30;0.30;;;11.40;99.90;;;;;;5030894;28;20029;-50
2023/06/07 03:06:53;;;;;;;0.25;0.25;;;11.50;99.90;;;;;;5030921;28;20163;-53
2023/06/07 03:09:19;;;;;;;0.40;0.40;;;11.50;99.90;;;;;;5030965;28;20401;-50
2023/06/07 03:11:45;;;;;;;0.20;0.20;;;11.50;99.90;;;;;;5030814;28;20369;-51
2023/06/07 03:14:10;;;;;;;0.40;0.40;;;11.50;99.90;;;;;;5030703;28;20059;-48
2023/06/07 03:16:36;;;;;;;0.35;0.35;;;11.40;99.90;;;;;;5030956;28;20025;-50
2023/06/07 03:19:02;;;;;;;0.25;0.25;;;11.40;99.90;;;;;;5030706;28;20420;-50
2023/06/07 03:21:28;;;;;;;0.20;0.20;;;11.40;99.90;;;;;;5030661;28;20040;-53
2023/06/07 03:23:53;;;;;;;0.25;0.25;;;11.40;99.90;;;;;;5013160;28;20040;-49
2023/06/07 03:26:19;;;;;;;0.30;0.30;;;11.50;99.90;;;;;;5030982;28;20028;-48
2023/06/07 03:28:45;;;;;;;0.38;0.38;;;11.50;99.90;;;;;;5030489;28;20568;-51
2023/06/07 03:31:10;;;;;;;0.30;0.30;;;11.50;99.90;;;;;;5026390;28;20045;-48
2023/06/07 03:33:36;;;;;;;0.20;0.20;;;11.50;99.90;;;;;;5024291;28;20084;-47
2023/06/07 03:36:07;;;;;;;0.47;0.47;;;11.40;99.90;;;;;;5025015;28;20045;-56
2023/06/07 03:38:32;;;;;;;0.30;0.30;;;11.40;99.90;;;;;;5025715;28;20083;-49
2023/06/07 03:40:58;;;;;;;0.60;0.60;;;11.40;99.90;;;;;;5023701;28;20029;-47
2023/06/07 03:43:24;;;;;;;0.52;0.40;;;11.40;99.90;;;;;;5028102;28;20075;-49
2023/06/07 03:45:50;;;;;;;0.20;0.20;;;11.40;99.90;;;;;;5022535;28;20088;-47
2023/06/07 03:48:15;;;;;;;0.20;0.20;;;11.40;99.90;;;;;;5026510;28;20699;-49
2023/06/07 03:50:41;;;;;;;0.40;0.40;;;11.40;99.90;;;;;;5023701;28;20024;-50
2023/06/07 03:53:07;;;;;;;0.20;0.20;;;11.40;99.90;;;;;;5025357;28;20069;-51
2023/06/07 03:55:33;;;;;;;0.25;0.25;;;11.40;99.90;;;;;;5026375;28;20164;-54
2023/06/07 03:57:59;;;;;;;0.20;0.20;;;11.40;99.90;;;;;;5030523;28;20029;-47
2023/06/07 04:00:27;;;;;;;0.28;0.28;;;11.40;99.90;;;;;;5030511;28;20018;-51
2023/06/07 04:02:53;;;;;;;0.43;0.30;;;11.40;99.90;;;;;;5030178;28;20120;-47
2023/06/07 04:05:19;;;;;;;0.20;0.20;;;11.40;99.90;;;;;;5012843;28;20025;-50
2023/06/07 04:07:47;;;;;;;0.17;0.17;;;11.40;99.90;;;;;;5030486;28;20033;-48
2023/06/07 04:10:13;;;;;;;0.22;0.22;;;11.40;99.90;;;;;;5030308;28;20029;-49
2023/06/07 04:12:43;;;;;;;0.20;0.20;;;11.40;99.90;;;;;;5030072;28;20030;-47
2023/06/07 04:15:09;;;;;;;0.55;0.45;;;11.40;99.90;;;;;;5030247;28;20441;-55
2023/06/07 04:17:34;;;;;;;0.20;0.20;;;11.50;99.90;;;;;;5030305;28;20072;-52
2023/06/07 04:20:00;;;;;;;0.35;0.35;;;11.50;99.90;;;;;;5030278;28;20029;-46
2023/06/07 04:22:26;;;;;;;0.65;0.65;;;11.50;99.90;;;;;;5030329;28;20021;-47
2023/06/07 04:24:51;;;;;;;0.57;0.57;;;11.50;99.90;;;;;;5030123;28;20037;-49
2023/06/07 04:27:18;;;;;;;0.20;0.20;;;11.50;99.90;;;;;;5030070;28;20021;-47
2023/06/07 04:29:44;;;;;;;0.38;0.38;;;11.50;99.90;;;;;;5030066;28;20102;-51
2023/06/07 04:32:09;;;;;;;0.20;0.20;;;11.60;99.90;;;;;;5030773;28;20384;-49
2023/06/07 04:34:41;;;;;;;0.47;0.30;;;11.70;99.90;;;;;;5033975;28;20041;-50
2023/06/07 04:37:08;;;;;;;0.20;0.20;;;11.70;99.90;;;;;;5033778;28;20029;-47
2023/06/07 04:39:36;;;;;;;0.20;0.20;;;11.70;99.90;;;;;;5033919;28;20034;-51
2023/06/07 04:42:05;;;;;;;0.32;0.32;;;11.70;99.90;;;;;;5033649;28;20030;-49
2023/06/07 04:44:31;;;;;;;0.20;0.20;;;11.80;99.90;;;;;;5033573;28;20035;-51
2023/06/07 04:46:59;;;;;;;0.40;0.40;;;11.80;99.90;;;;;;5033779;28;20037;-47
2023/06/07 04:49:25;;;;;;;0.20;0.20;;;11.90;99.90;;;;;;5033784;28;20130;-49
2023/06/07 04:51:52;;;;;;;0.73;0.40;;;11.90;99.90;;;;;;5033669;28;20057;-48
2023/06/07 04:54:21;;;;;;;0.32;0.32;;;12.00;99.90;;;;;;5033366;28;20103;-48
2023/06/07 04:56:46;;;;;;;0.30;0.30;;;12.00;99.90;;;;;;5033640;28;20017;-50
2023/06/07 04:59:14;;;;;;;0.17;0.17;;;12.10;99.90;;;;;;5033587;28;20379;-47
2023/06/07 05:01:41;;;;;;;0.30;0.30;;;12.10;99.90;;;;;;5033358;28;20384;-50
2023/06/07 05:04:07;;;;;;;0.30;0.30;;;12.10;99.90;;;;;;5033676;28;20037;-50
2023/06/07 05:06:37;;;;;;;0.30;0.30;;;12.20;99.90;;;;;;5033342;28;20100;-51
2023/06/07 05:09:03;;;;;;;1.55;0.75;;;12.20;99.90;;;;;;5033534;28;20057;-47
2023/06/07 05:11:29;;;;;;;0.20;0.20;;;12.20;99.90;;;;;;5033194;28;20029;-47
2023/06/07 05:13:55;;;;;;;0.20;0.20;;;12.30;99.90;;;;;;5032865;28;20110;-49
2023/06/07 05:16:20;;;;;;;0.30;0.30;;;12.30;99.90;;;;;;5033282;28;20652;-49
2023/06/07 05:18:48;;;;;;;0.32;0.32;;;12.40;99.90;;;;;;5032999;28;20018;-52
2023/06/07 05:21:15;;;;;;;0.47;0.45;;;12.40;99.90;;;;;;5033226;28;20028;-51
2023/06/07 05:23:41;;;;;;;0.32;0.32;;;12.50;99.90;;;;;;5032829;28;20026;-47
2023/06/07 05:26:07;;;;;;;1.02;0.93;;;12.60;99.90;;;;;;5033016;28;20025;-48
2023/06/07 05:28:32;;;;;;;0.32;0.32;;;12.70;99.90;;;;;;5032860;28;20036;-55
2023/06/07 05:30:58;;;;;;;0.20;0.20;;;12.60;99.90;;;;;;5032957;28;20022;-48
2023/06/07 05:33:25;;;;;;;0.30;0.30;;;12.70;99.90;;;;;;5014973;28;20412;-49
2023/06/07 05:35:51;;;;;;;0.40;0.40;;;12.80;99.90;;;;;;5032843;28;20018;-50
2023/06/07 05:38:16;;;;;;;0.65;0.57;;;12.80;99.90;;;;;;5032872;28;20434;-54
2023/06/07 05:40:42;;;;;;;0.38;0.38;;;12.90;99.90;;;;;;5032589;28;20018;-52
2023/06/07 05:43:08;;;;;;;0.52;0.40;;;13.00;99.90;;;;;;5031887;28;20479;-47
2023/06/07 05:45:33;;;;;;;0.20;0.20;;;13.10;99.90;;;;;;5032388;28;20029;-53
2023/06/07 05:47:59;;;;;;;0.35;0.32;;;13.20;99.90;;;;;;5032741;28;20093;-47
2023/06/07 05:50:25;;;;;;;0.20;0.20;;;13.20;99.90;;;;;;5032392;28;20085;-47
2023/06/07 05:52:59;;;;;;;0.20;0.20;;;13.20;99.90;;;;;;5032309;28;20035;-52
2023/06/07 05:55:25;;;;;;;0.20;0.20;;;13.20;99.90;;;;;;5031926;28;20416;-53
2023/06/07 05:57:51;;;;;;;0.43;0.43;;;13.40;99.90;;;;;;5032265;28;20040;-52
2023/06/07 06:00:17;;;;;;;0.43;0.35;;;13.60;99.90;;;;;;5032341;28;20476;-51
2023/06/07 06:02:46;;;;;;;0.28;0.28;;;13.80;99.90;;;;;;5032548;28;20044;-50
2023/06/07 06:05:15;;;;;;;0.32;0.32;;;14.10;99.90;;;;;;5032114;28;20541;-48
2023/06/07 06:07:42;;;;;;;0.30;0.30;;;14.20;99.90;;;;;;5032283;28;20451;-52
2023/06/07 06:10:08;;;;;;;0.25;0.25;;;14.20;99.90;;;;;;5032030;28;20025;-50
2023/06/07 06:12:34;;;;;;;0.30;0.30;;;14.20;99.90;;;;;;5031996;28;20033;-48
2023/06/07 06:15:00;;;;;;;0.50;0.50;;;14.20;99.90;;;;;;5031753;28;20124;-48
2023/06/07 06:17:26;;;;;;;0.30;0.30;;;14.20;99.90;;;;;;5031891;28;20500;-49
2023/06/07 06:19:52;;;;;;;0.63;0.43;;;14.30;99.90;;;;;;5031891;28;20124;-49
2023/06/07 06:22:17;;;;;;;0.35;0.35;;;14.20;99.90;;;;;;5018056;28;20022;-50
2023/06/07 06:24:43;;;;;;;0.30;0.30;;;14.30;99.90;;;;;;5031946;28;20051;-48
2023/06/07 06:27:10;;;;;;;0.73;0.70;;;14.50;99.90;;;;;;5031854;28;20028;-49
2023/06/07 06:29:36;;;;;;;0.20;0.20;;;14.70;99.90;;;;;;5031702;28;20040;-51
2023/06/07 06:32:02;;;;;;;0.35;0.20;;;14.90;99.90;;;;;;5031079;28;20072;-47
2023/06/07 06:34:29;;;;;;;0.40;0.35;;;15.00;99.90;;;;;;5031378;28;20481;-51
2023/06/07 06:36:54;;;;;;;0.20;0.20;;;15.20;99.90;;;;;;5028251;28;20047;-51
2023/06/07 06:39:22;;;;;;;0.30;0.30;;;15.80;99.90;;;;;;5030295;28;20556;-51
2023/06/07 06:41:47;;;;;;;0.28;0.28;;;16.20;99.90;;;;;;5025488;28;20423;-48
2023/06/07 06:44:13;;;;;;;0.20;0.20;;;16.90;99.90;;;;;;5030181;28;20033;-51
2023/06/07 06:46:38;;;;;;;0.30;0.30;;;16.90;99.90;;;;;;5030937;28;20130;-50
2023/06/07 06:49:04;;;;;;;0.38;0.30;;;17.30;99.90;;;;;;5028028;28;20079;-49
2023/06/07 06:51:30;;;;;;;0.30;0.30;;;18.00;99.90;;;;;;5031246;28;20033;-53
2023/06/07 06:53:55;;;;;;;0.35;0.35;;;18.30;99.90;;;;;;5025135;28;20523;-48
2023/06/07 06:56:21;;;;;;;0.20;0.20;;;18.80;99.90;;;;;;5030653;28;20517;-49
2023/06/07 06:58:47;;;;;;;0.30;0.30;;;18.90;99.90;;;;;;5031436;28;20021;-52
2023/06/07 07:01:16;;;;;;;0.65;0.30;;;19.10;99.90;;;;;;5031115;28;20070;-53
2023/06/07 07:03:42;;;;;;;0.30;0.30;;;19.10;99.90;;;;;;5031203;28;20063;-51
2023/06/07 07:06:08;;;;;;;0.50;0.47;;;19.10;99.90;;;;;;5031079;28;20030;-52
2023/06/07 07:08:35;;;;;;;0.40;0.40;;;19.20;99.90;;;;;;5031092;28;20029;-48
2023/06/07 07:11:01;;;;;;;0.47;0.47;;;19.10;99.90;;;;;;5013063;28;20789;-54
2023/06/07 07:13:26;;;;;;;0.30;0.30;;;19.00;99.90;;;;;;5030543;28;20045;-49
2023/06/07 07:15:52;;;;;;;0.30;0.30;;;19.40;99.90;;;;;;5029955;28;20034;-55
2023/06/07 07:18:18;;;;;;;0.40;0.30;;;20.10;99.90;;;;;;5030601;28;20029;-50
2023/06/07 07:20:45;;;;;;;0.35;0.35;;;20.60;99.90;;;;;;5023159;28;20113;-54
2023/06/07 07:23:11;;;;;;;0.20;0.20;;;20.70;99.90;;;;;;5030789;28;20484;-57
2023/06/07 07:25:37;;;;;;;0.20;0.20;;;21.00;99.90;;;;;;5030635;28;20013;-47
2023/06/07 07:28:03;;;;;;;0.57;0.40;;;21.30;99.90;;;;;;5026014;28;20033;-49
2023/06/07 07:30:29;;;;;;;0.65;0.50;;;21.50;99.90;;;;;;5026098;28;20019;-49
2023/06/07 07:32:56;;;;;;;0.85;0.50;;;22.10;99.90;;;;;;5025876;28;20424;-49
2023/06/07 07:35:22;;;;;;;0.10;0.10;;;22.70;99.90;;;;;;5021721;28;20362;-49
2023/06/07 07:37:49;;;;;;;0.30;0.30;;;22.70;99.90;;;;;;5026363;28;20045;-53
2023/06/07 07:40:15;;;;;;;0.30;0.30;;;22.50;98.00;;;;;;5021256;28;20028;-55
2023/06/07 07:42:41;;;;;;;0.50;0.32;;;22.30;97.60;;;;;;5030250;28;20112;-53
2023/06/07 07:45:07;;;;;;;0.70;0.45;;;22.40;99.30;;;;;;5023159;28;20102;-49
2023/06/07 07:47:33;;;;;;;0.28;0.28;;;22.60;98.30;;;;;;5023955;28;20014;-47
2023/06/07 07:50:00;;;;;;;0.32;0.32;;;23.00;96.50;;;;;;5025224;28;20039;-51
2023/06/07 07:52:26;;;;;;;0.28;0.20;;;23.60;96.30;;;;;;5022168;28;20029;-48
2023/06/07 07:54:51;;;;;;;0.20;0.20;;;24.10;94.80;;;;;;5024588;28;20049;-57
2023/06/07 07:57:17;;;;;;;0.35;0.35;;;24.50;93.90;;;;;;5030145;28;20058;-55
2023/06/07 07:59:43;;;;;;;0.32;0.30;;;24.70;92.40;;;;;;5030016;28;20227;-50
2023/06/07 08:02:09;;;;;;;0.20;0.20;;;25.00;91.50;;;;;;5030579;28;20406;-51
2023/06/07 08:04:35;;;;;;;0.50;0.40;;;25.20;91.60;;;;;;5019394;28;20037;-49
2023/06/07 08:07:01;;;;;;;0.30;0.30;;;25.40;90.80;;;;;;5031335;28;20037;-55
2023/06/07 08:09:27;;;;;;;0.75;0.45;;;25.70;89.20;;;;;;5033542;28;20032;-54
2023/06/07 08:11:52;;;;;;;0.75;0.52;;;25.70;86.40;;;;;;5032230;28;20029;-53
2023/06/07 08:14:18;;;;;;;0.40;0.40;;;25.60;85.50;;;;;;5031807;28;20041;-50
2023/06/07 08:16:44;;;;;;;0.50;0.50;;;25.70;84.20;;;;;;5025622;28;20460;-51
2023/06/07 08:19:10;;;;;;;1.08;0.60;;;25.80;85.40;;;;;;5032760;28;20033;-49
2023/06/07 08:21:36;;;;;;;0.40;0.30;;;26.00;85.70;;;;;;5024473;28;20017;-51
2023/06/07 08:24:02;;;;;;;1.25;0.73;;;26.20;83.60;;;;;;5029681;28;20488;-50
2023/06/07 08:26:28;;;;;;;0.47;0.47;;;26.10;79.30;;;;;;5028377;28;20021;-54
2023/06/07 08:28:53;;;;;;;1.08;0.52;;;26.60;83.20;;;;;;5029144;28;20039;-51
2023/06/07 08:31:19;;;;;;;0.50;0.50;;;26.60;81.10;;;;;;5028369;28;20025;-49
2023/06/07 08:33:45;;;;;;;0.30;0.30;;;26.80;79.90;;;;;;5031756;28;20104;-47
2023/06/07 08:36:11;;;;;;;0.35;0.35;;;26.70;77.50;;;;;;5030727;28;20022;-49
2023/06/07 08:38:41;;;;;;;0.52;0.50;;;26.60;76.90;;;;;;5028456;28;20033;-55
2023/06/07 08:41:07;;;;;;;1.00;0.70;;;26.70;77.60;;;;;;5024773;28;20022;-48
2023/06/07 08:43:33;;;;;;;0.50;0.50;;;26.80;77.60;;;;;;5024032;28;20061;-50
2023/06/07 08:46:05;;;;;;;0.50;0.50;;;26.80;76.60;;;;;;5022721;28;20056;-47
2023/06/07 08:48:33;;;;;;;0.63;0.43;;;26.60;76.70;;;;;;5024515;28;20037;-54
2023/06/07 08:51:04;;;;;;;0.60;0.52;;;26.70;77.50;;;;;;5031727;28;20029;-47
2023/06/07 08:53:46;;;;;;;1.13;0.90;;;26.90;79.70;;;;;;5031179;28;20037;-46
2023/06/07 08:56:13;;;;;;;0.35;0.35;;;27.10;76.40;;;;;;5033336;28;20045;-52
2023/06/07 08:58:39;;;;;;;0.60;0.50;;;27.40;77.80;;;;;;5031896;28;20025;-48
2023/06/07 09:01:05;;;;;;;0.65;0.55;;;27.40;77.30;;;;;;5030702;28;20018;-47
2023/06/07 09:03:31;;;;;;;0.63;0.50;;;27.20;74.70;;;;;;5031922;28;20107;-47
2023/06/07 09:05:57;;;;;;;0.65;0.65;;;26.90;76.10;;;;;;5032125;28;20026;-46
2023/06/07 09:08:22;;;;;;;1.27;0.85;;;27.00;75.20;;;;;;5028307;28;20022;-51
2023/06/07 09:10:48;;;;;;;0.40;0.40;;;27.20;79.30;;;;;;5027129;28;20166;-45
2023/06/07 09:13:20;;;;;;;0.55;0.50;;;27.20;74.20;;;;;;5032981;28;20063;-49
2023/06/07 09:15:49;;;;;;;0.63;0.40;;;27.60;75.20;;;;;;5025741;28;20021;-48
2023/06/07 09:18:14;;;;;;;0.60;0.55;;;27.60;73.30;;;;;;5021173;28;20026;-49
2023/06/07 09:20:40;;;;;;;0.57;0.45;;;27.50;71.10;;;;;;5022410;28;20381;-54
2023/06/07 09:23:13;;;;;;;0.50;0.50;;;27.40;74.00;;;;;;5032255;28;20087;-53
2023/06/07 09:25:39;;;;;;;0.50;0.50;;;27.60;74.60;;;;;;5026059;28;20033;-47
2023/06/07 09:28:13;;;;;;;0.88;0.63;;;27.60;75.20;;;;;;5022847;28;20033;-46
2023/06/07 09:30:55;;;;;;;0.30;0.30;;;27.50;72.50;;;;;;5022924;28;20036;-46
2023/06/07 09:33:28;;;;;;;0.60;0.40;;;27.10;76.60;;;;;;5021245;28;20033;-49
2023/06/07 09:36:05;;;;;;;0.65;0.52;;;27.50;76.50;;;;;;5024000;28;20484;-52
2023/06/07 09:38:32;;;;;;;0.95;0.55;;;27.20;72.60;;;;;;5020548;28;20061;-48
2023/06/07 09:40:59;;;;;;;0.82;0.63;;;27.30;74.80;;;;;;5024525;28;20412;-46
2023/06/07 09:43:25;;;;;;;0.55;0.45;;;27.20;73.80;;;;;;5032196;28;20500;-49
2023/06/07 09:45:55;;;;;;;1.05;0.68;;;27.50;72.80;;;;;;5030807;28;20048;-45
2023/06/07 09:48:21;;;;;;;1.23;0.73;;;26.40;69.10;;;;;;5027564;28;20086;-47
2023/06/07 09:50:59;;;;;;;2.55;0.60;;;26.40;72.60;;;;;;5022521;28;20033;-47
2023/06/07 09:53:27;;;;;;;0.75;0.75;;;26.00;71.90;;;;;;5027619;28;20542;-47
2023/06/07 09:55:52;;;;;;;1.27;0.80;;;25.60;77.50;;;;;;5027546;28;20041;-45
2023/06/07 09:58:22;;;;;;;1.58;1.00;;;26.40;78.10;;;;;;5032309;28;20072;-48
2023/06/07 10:00:47;;;;;;;0.55;0.55;;;26.70;73.10;;;;;;5032515;28;20029;-46
2023/06/07 10:03:13;;;;;;;0.77;0.73;;;26.50;73.20;;;;;;5032254;28;20433;-53
2023/06/07 10:05:41;;;;;;;1.52;0.80;;;26.40;71.60;;;;;;5032167;28;20030;-50
2023/06/07 10:08:07;;;;;;;0.68;0.57;;;26.00;75.30;;;;;;5032277;28;20025;-47
2023/06/07 10:10:34;;;;;;;0.20;0.20;;;26.60;73.80;;;;;;5014794;28;20428;-46
2023/06/07 10:13:04;;;;;;;0.60;0.60;;;26.80;73.70;;;;;;5031853;28;20065;-52
2023/06/07 10:15:31;;;;;;;0.63;0.60;;;27.20;77.40;;;;;;5018061;28;20108;-54
2023/06/07 10:18:11;;;;;;;1.60;1.10;;;27.40;73.50;;;;;;5028423;28;20025;-48
2023/06/07 10:20:41;;;;;;;0.40;0.40;;;27.30;74.90;;;;;;5018294;28;20027;-53
2023/06/07 10:23:11;;;;;;;0.82;0.60;;;27.60;75.90;;;;;;5023027;28;20105;-49
2023/06/07 10:25:43;;;;;;;0.68;0.60;;;27.30;72.70;;;;;;5026148;28;20029;-45
2023/06/07 10:28:32;;;;;;;0.40;0.40;;;26.90;70.40;;;;;;5027902;28;20076;-47
2023/06/07 10:31:05;;;;;;;0.47;0.47;;;26.70;71.10;;;;;;5024160;28;20029;-50
2023/06/07 10:33:33;;;;;;;0.70;0.60;;;26.50;72.10;;;;;;5015561;28;20038;-50
2023/06/07 10:35:59;;;;;;;3.28;1.00;;;25.80;70.90;;;;;;5028364;28;20037;-46
2023/06/07 10:38:32;;;;;;;0.60;0.60;;;25.50;72.70;;;;;;5029007;28;20128;-53
2023/06/07 10:41:01;;;;;;;0.73;0.60;;;25.50;73.30;;;;;;5027187;28;20540;-58
2023/06/07 10:43:29;;;;;;;1.85;0.40;;;25.90;77.90;;;;;;5028666;28;20033;-60
2023/06/07 10:46:20;;;;;;;0.63;0.50;;;26.40;78.00;;;;;;5028464;28;20053;-49
2023/06/07 10:48:46;;;;;;;0.90;0.60;;;26.90;73.90;;;;;;5025702;28;20025;-51
2023/06/07 10:51:13;;;;;;;0.82;0.73;;;26.90;75.20;;;;;;5017003;28;20033;-52
2023/06/07 10:53:48;;;;;;;0.40;0.40;;;27.10;76.00;;;;;;5021425;28;20043;-45
2023/06/07 10:56:27;;;;;;;0.52;0.45;;;27.10;74.40;;;;;;4987678;28;20076;-50
2023/06/07 10:58:53;;;;;;;0.50;0.50;;;27.30;73.70;;;;;;4990875;28;20057;-48
2023/06/07 11:01:24;;;;;;;0.60;0.60;;;27.20;70.50;;;;;;4991667;28;20026;-49
2023/06/07 11:03:50;;;;;;;0.38;0.38;;;27.40;72.40;;;;;;4991842;28;20104;-47
2023/06/07 11:06:16;;;;;;;0.47;0.47;;;27.10;76.00;;;;;;4991876;28;20417;-44
2023/06/07 11:08:43;;;;;;;0.50;0.50;;;27.10;71.40;;;;;;4991941;28;20085;-50
2023/06/07 11:11:39;;;;;;;0.52;0.35;;;26.40;70.80;;;;;;4991908;28;20022;-49
2023/06/07 11:14:05;;;;;;;0.65;0.47;;;26.70;74.70;;;;;;4991221;28;20129;-48
2023/06/07 11:16:31;;;;;;;0.43;0.43;;;26.60;76.50;;;;;;4991757;28;20121;-48
2023/06/07 11:19:00;;;;;;;0.45;0.40;;;26.80;76.30;;;;;;4991526;28;20037;-50
2023/06/07 11:21:30;;;;;;;1.33;0.77;;;26.50;72.40;;;;;;4991750;28;20031;-47
2023/06/07 11:24:13;;;;;;;1.02;0.63;;;25.80;71.40;;;;;;4991485;28;20034;-50
2023/06/07 11:26:40;;;;;;;1.00;0.57;;;25.30;74.90;;;;;;4980547;28;20089;-45
2023/06/07 11:29:07;;;;;;;1.60;0.77;;;25.40;78.00;;;;;;4988783;28;20027;-48
2023/06/07 11:31:33;;;;;;;0.43;0.35;;;25.60;76.20;;;;;;4990224;28;20037;-45
2023/06/07 11:33:58;;;;;;;2.00;1.48;;;25.80;76.40;;;;;;4987860;28;20034;-53
2023/06/07 11:36:24;;;;;;;0.70;0.70;;;26.20;78.40;;;;;;4990501;28;20030;-52
2023/06/07 11:38:54;;;;;;;0.30;0.30;;;25.90;73.20;;;;;;4989943;28;20045;-48
2023/06/07 11:41:21;;;;;;;0.40;0.38;;;25.70;74.00;;;;;;4977582;28;20034;-49
2023/06/07 11:43:47;;;;;;;1.65;0.65;;;25.90;78.40;;;;;;4990317;28;20034;-46
2023/06/07 11:46:20;;;;;;;0.30;0.30;;;26.10;76.30;;;;;;4988528;28;20045;-47
2023/06/07 11:48:45;;;;;;;0.60;0.50;;;26.20;77.10;;;;;;4989137;28;20030;-47
2023/06/07 11:51:11;;;;;;;1.42;0.80;;;26.40;73.70;;;;;;4989006;28;20040;-48
2023/06/07 11:53:37;;;;;;;0.70;0.57;;;25.70;73.30;;;;;;4989428;28;20179;-49
2023/06/07 11:56:03;;;;;;;0.88;0.57;;;25.30;75.20;;;;;;5028475;28;20572;-46
2023/06/07 11:58:30;;;;;;;0.68;0.57;;;25.20;78.40;;;;;;5030740;28;20025;-49
2023/06/07 12:00:57;;;;;;;0.98;0.60;;;25.60;76.50;;;;;;5028478;28;20124;-53
2023/06/07 12:03:24;;;;;;;0.52;0.52;;;25.80;75.60;;;;;;5028715;28;20052;-46
2023/06/07 12:05:50;;;;;;;0.82;0.63;;;25.60;74.70;;;;;;5030190;28;20412;-47
2023/06/07 12:08:17;;;;;;;0.20;0.20;;;26.00;82.00;;;;;;5029716;28;20480;-49
2023/06/07 12:10:53;;;;;;;1.75;0.90;;;26.20;78.50;;;;;;5030417;28;20037;-47
2023/06/07 12:13:20;;;;;;;0.95;0.75;;;25.60;72.70;;;;;;5027606;28;20092;-49
2023/06/07 12:15:56;;;;;;;0.75;0.52;;;25.70;73.20;;;;;;5023524;28;20022;-46
2023/06/07 12:18:25;;;;;;;0.68;0.60;;;24.80;72.70;;;;;;5013336;28;20022;-49
2023/06/07 12:21:01;;;;;;;0.93;0.30;;;24.00;75.00;;;;;;5014522;28;20029;-46
2023/06/07 12:23:26;;;;;;;0.77;0.65;;;24.20;80.00;;;;;;5013478;28;20053;-45
2023/06/07 12:26:08;;;;;;;0.32;0.32;;;24.30;77.30;;;;;;5015107;28;20417;-47
2023/06/07 12:28:33;;;;;;;0.38;0.38;;;24.40;79.70;;;;;;5013427;28;20029;-51
2023/06/07 12:30:59;;;;;;;0.77;0.70;;;24.80;77.90;;;;;;5015249;28;20022;-49
2023/06/07 12:33:26;;;;;;;1.40;0.55;;;24.70;77.90;;;;;;5012797;28;20072;-46
2023/06/07 12:35:52;;;;;;;0.50;0.50;;;24.70;76.90;;;;;;5015524;28;20029;-48
2023/06/07 12:38:21;;;;;;;0.30;0.30;;;24.60;77.30;;;;;;5012751;28;20034;-47
2023/06/07 12:40:47;;;;;;;0.40;0.32;;;24.60;77.90;;;;;;5015343;28;20387;-46
2023/06/07 12:43:13;;;;;;;0.60;0.60;;;24.70;80.10;;;;;;5012808;28;20042;-48
2023/06/07 12:45:38;;;;;;;0.65;0.50;;;24.80;80.20;;;;;;5013802;28;20026;-48
2023/06/07 12:48:04;;;;;;;0.68;0.68;;;25.10;80.70;;;;;;5016036;28;21572;-49
2023/06/07 12:50:30;;;;;;;0.40;0.40;;;25.00;76.10;;;;;;5026685;28;20060;-48